Terminal Aerodrome Forecast
Issued by NWS

Home | Current Version | Previous Version | Graphics & Text | Print | Product List | Glossary On
Versions: 1 2 3 4 5 6 7 8 9 10 11 12
177
FTUS43 KTOP 170520
TAFFOE
TAF
KFOE 170520Z 1706/1806 19006KT P6SM FEW250 WS007/22035KT
     FM171300 19011KT P6SM SKC=

USA.gov is the U.S. government's official web portal to all federal, state and local government web resources and services.